createdAt,value
2023-12-09T00:00:39.592Z,-0.16
2023-12-09T00:03:08.431Z,-0.15
2023-12-09T00:05:35.908Z,-0.07
2023-12-09T00:08:02.552Z,-0.08
2023-12-09T00:10:29.223Z,-0.02
2023-12-09T00:12:56.151Z,-0.05
2023-12-09T00:15:22.817Z,-0.04
2023-12-09T00:17:50.352Z,-0.12
2023-12-09T00:20:16.878Z,-0.14
2023-12-09T00:22:43.384Z,-0.13
2023-12-09T00:25:10.534Z,-0.05
2023-12-09T00:27:37.028Z,-0.04
2023-12-09T00:30:03.844Z,-0.08
2023-12-09T00:32:30.825Z,-0.13
2023-12-09T00:34:57.742Z,-0.10
2023-12-09T00:37:24.227Z,-0.11
2023-12-09T00:39:51.036Z,-0.14
2023-12-09T00:42:17.711Z,-0.10
2023-12-09T00:44:44.367Z,-0.03
2023-12-09T00:47:10.917Z,-0.04
2023-12-09T00:49:37.591Z,-0.03
2023-12-09T00:52:04.422Z,0.01
2023-12-09T00:54:31.004Z,-0.04
2023-12-09T00:56:57.636Z,-0.06
2023-12-09T00:59:24.164Z,-0.07
2023-12-09T01:01:50.723Z,-0.02
2023-12-09T01:04:17.419Z,0.03
2023-12-09T01:06:44.177Z,0.11
2023-12-09T01:09:10.794Z,0.04
2023-12-09T01:11:37.378Z,0.13
2023-12-09T01:14:03.875Z,0.18
2023-12-09T01:16:31.258Z,0.13
2023-12-09T01:18:58.065Z,0.07
2023-12-09T01:21:24.671Z,0.16
2023-12-09T01:23:51.267Z,0.21
2023-12-09T01:26:17.827Z,0.18
2023-12-09T01:28:45.197Z,0.32
2023-12-09T01:31:11.747Z,0.20
2023-12-09T01:33:39.288Z,0.16
2023-12-09T01:36:06.143Z,0.10
2023-12-09T01:38:32.753Z,0.14
2023-12-09T01:40:59.264Z,0.23
2023-12-09T01:43:26.571Z,0.31
2023-12-09T01:45:55.830Z,0.33
2023-12-09T01:48:23.617Z,0.31
2023-12-09T01:50:50.733Z,0.24
2023-12-09T01:53:17.542Z,0.21
2023-12-09T01:55:44.129Z,0.25
2023-12-09T01:58:11.826Z,0.23
2023-12-09T02:00:40.831Z,0.11
2023-12-09T02:03:07.656Z,0.07
2023-12-09T02:09:21.299Z,0.10
2023-12-09T02:12:14.541Z,0.13
2023-12-09T02:14:56.133Z,0.19
2023-12-09T02:17:48.800Z,0.19
2023-12-09T02:20:15.594Z,0.18
2023-12-09T02:22:42.181Z,0.11
2023-12-09T02:25:09.253Z,0.06
2023-12-09T02:27:58.857Z,0.07
2023-12-09T02:30:42.230Z,0.08
2023-12-09T02:33:11.364Z,0.08
2023-12-09T02:35:41.381Z,0.07
2023-12-09T02:38:10.185Z,0.21
2023-12-09T02:40:37.670Z,0.30
2023-12-09T02:43:05.104Z,0.28
2023-12-09T02:45:31.741Z,0.31
2023-12-09T02:47:58.704Z,0.25
2023-12-09T02:50:25.276Z,0.28
2023-12-09T02:52:51.800Z,0.30
2023-12-09T02:55:18.699Z,0.23
2023-12-09T02:57:45.287Z,0.31
2023-12-09T03:00:12.415Z,0.23
2023-12-09T03:02:39.094Z,0.20
2023-12-09T03:05:05.887Z,0.31
2023-12-09T03:07:32.542Z,0.32
2023-12-09T03:09:59.084Z,0.30
2023-12-09T03:12:25.856Z,0.31
2023-12-09T03:14:54.101Z,0.29
2023-12-09T03:17:20.693Z,0.23
2023-12-09T03:19:47.347Z,0.23
2023-12-09T03:22:13.909Z,0.29
2023-12-09T03:24:43.672Z,0.26
2023-12-09T03:27:10.235Z,0.29
2023-12-09T03:29:37.525Z,0.40
2023-12-09T03:32:04.256Z,0.30
2023-12-09T03:34:31.078Z,0.33
2023-12-09T03:36:57.740Z,0.27
2023-12-09T03:39:24.411Z,0.33
2023-12-09T03:41:51.134Z,0.31
2023-12-09T03:44:17.834Z,0.28
2023-12-09T03:46:44.361Z,0.25
2023-12-09T03:49:11.051Z,0.24
2023-12-09T03:51:37.652Z,0.26
2023-12-09T03:54:05.171Z,0.28
2023-12-09T03:56:32.105Z,0.28
2023-12-09T03:58:58.610Z,0.31
2023-12-09T04:01:25.965Z,0.29
2023-12-09T04:03:53.122Z,0.31
2023-12-09T04:06:19.835Z,0.26
2023-12-09T04:08:46.359Z,0.29
2023-12-09T04:11:12.931Z,0.31
2023-12-09T04:13:41.516Z,0.35
2023-12-09T04:16:08.480Z,0.32
2023-12-09T04:18:35.605Z,0.31
2023-12-09T04:21:02.290Z,0.34
2023-12-09T04:23:28.866Z,0.33
2023-12-09T04:25:55.428Z,0.31
2023-12-09T04:28:22.016Z,0.32
2023-12-09T04:30:48.532Z,0.35
2023-12-09T04:33:15.124Z,0.37
2023-12-09T04:35:41.771Z,0.38
2023-12-09T04:38:08.476Z,0.56
2023-12-09T04:40:35.066Z,0.41
2023-12-09T04:43:01.590Z,0.41
2023-12-09T04:45:28.121Z,0.40
2023-12-09T04:47:54.858Z,0.41
2023-12-09T04:50:22.087Z,0.44
2023-12-09T04:52:48.595Z,0.39
2023-12-09T04:55:15.261Z,0.40
2023-12-09T04:57:44.166Z,0.33
2023-12-09T05:00:12.776Z,0.34
2023-12-09T05:02:39.448Z,0.36
2023-12-09T05:05:06.366Z,0.42
2023-12-09T05:07:33.962Z,0.35
2023-12-09T05:10:00.483Z,0.36
2023-12-09T05:12:28.116Z,0.42
2023-12-09T05:14:54.932Z,0.47
2023-12-09T05:17:21.424Z,0.46
2023-12-09T05:19:48.320Z,0.42
2023-12-09T05:22:16.029Z,0.41
2023-12-09T05:24:43.275Z,0.40
2023-12-09T05:27:09.872Z,0.38
2023-12-09T05:29:36.426Z,0.41
2023-12-09T05:32:04.120Z,0.40
2023-12-09T05:34:30.753Z,0.43
2023-12-09T05:36:57.274Z,0.39
2023-12-09T05:39:23.843Z,0.44
2023-12-09T05:41:50.571Z,0.45
2023-12-09T05:44:17.085Z,0.51
2023-12-09T05:46:43.583Z,0.50
2023-12-09T05:49:10.596Z,0.48
2023-12-09T05:51:38.135Z,0.49
2023-12-09T05:54:04.830Z,0.51
2023-12-09T05:56:31.465Z,0.48
2023-12-09T05:58:58.015Z,0.47
2023-12-09T06:01:24.550Z,0.52
2023-12-09T06:03:51.104Z,0.55
2023-12-09T06:06:17.918Z,0.56
2023-12-09T06:08:44.753Z,0.56
2023-12-09T06:11:11.698Z,0.57
2023-12-09T06:13:39.058Z,0.56
2023-12-09T06:16:05.757Z,0.56
2023-12-09T06:18:33.418Z,0.62
2023-12-09T06:21:00.012Z,0.61
2023-12-09T06:23:27.577Z,0.63
2023-12-09T06:25:54.185Z,0.65
2023-12-09T06:28:20.691Z,0.66
2023-12-09T06:30:47.351Z,0.66
2023-12-09T06:33:14.170Z,0.68
2023-12-09T06:35:40.740Z,0.67
2023-12-09T06:38:07.250Z,0.71
2023-12-09T06:40:33.829Z,0.73
2023-12-09T06:43:00.366Z,0.74
2023-12-09T06:45:27.295Z,0.76
2023-12-09T06:47:55.248Z,0.79
2023-12-09T06:50:22.460Z,0.84
2023-12-09T06:52:49.061Z,0.89
2023-12-09T06:55:15.642Z,0.87
2023-12-09T06:57:42.841Z,0.90
2023-12-09T07:00:09.886Z,0.91
2023-12-09T07:02:45.040Z,0.95
2023-12-09T07:05:20.054Z,0.94
2023-12-09T07:07:46.862Z,0.89
2023-12-09T07:10:13.351Z,0.95
2023-12-09T07:12:39.887Z,0.93
2023-12-09T07:15:07.784Z,0.87
2023-12-09T07:17:34.386Z,0.86
2023-12-09T07:20:01.007Z,0.88
2023-12-09T07:22:27.839Z,0.90
2023-12-09T07:24:54.566Z,0.89
2023-12-09T07:27:21.112Z,0.91
2023-12-09T07:29:47.665Z,0.88
2023-12-09T07:32:15.097Z,0.89
2023-12-09T07:34:41.717Z,0.89
2023-12-09T07:37:11.125Z,0.95
2023-12-09T07:39:43.718Z,0.98
2023-12-09T07:42:11.455Z,0.98
2023-12-09T07:44:38.047Z,1.02
2023-12-09T07:47:05.352Z,1.05
2023-12-09T07:49:32.232Z,1.08
2023-12-09T07:51:58.927Z,1.08
2023-12-09T07:54:25.568Z,1.10
2023-12-09T07:56:52.152Z,1.15
2023-12-09T07:59:18.679Z,1.19
2023-12-09T08:01:45.743Z,1.20
2023-12-09T08:04:13.821Z,1.33
2023-12-09T08:06:40.666Z,1.26
2023-12-09T08:09:08.391Z,1.32
2023-12-09T08:11:35.979Z,1.35
2023-12-09T08:14:02.645Z,1.36
2023-12-09T08:16:29.215Z,1.38
2023-12-09T08:18:55.925Z,1.49
2023-12-09T08:21:22.664Z,1.47
2023-12-09T08:23:49.260Z,1.52
2023-12-09T08:26:19.403Z,1.63
2023-12-09T08:28:46.716Z,1.62
2023-12-09T08:31:13.629Z,1.61
2023-12-09T08:33:41.218Z,1.63
2023-12-09T08:36:08.449Z,1.55
2023-12-09T08:38:35.445Z,1.62
2023-12-09T08:41:02.314Z,1.62
2023-12-09T08:43:28.976Z,1.73
2023-12-09T08:45:55.647Z,1.76
2023-12-09T08:48:22.374Z,1.86
2023-12-09T08:50:49.065Z,1.84
2023-12-09T08:53:15.623Z,1.87
2023-12-09T08:55:42.384Z,1.90
2023-12-09T08:58:09.097Z,1.95
2023-12-09T09:00:35.628Z,1.89
2023-12-09T09:03:04.549Z,1.91
2023-12-09T09:05:31.281Z,1.90
2023-12-09T09:07:58.634Z,1.98
2023-12-09T09:10:25.225Z,2.04
2023-12-09T09:12:51.764Z,1.98
2023-12-09T09:15:18.612Z,2.00
2023-12-09T09:17:45.241Z,2.00
2023-12-09T09:20:12.000Z,2.06
2023-12-09T09:22:39.008Z,2.09
2023-12-09T09:25:06.162Z,2.06
2023-12-09T09:27:33.028Z,2.12
2023-12-09T09:29:59.876Z,2.07
2023-12-09T09:32:26.778Z,2.03
2023-12-09T09:34:53.769Z,2.03
2023-12-09T09:37:21.275Z,2.07
2023-12-09T09:39:48.483Z,2.01
2023-12-09T09:42:21.117Z,2.04
2023-12-09T09:45:11.392Z,2.02
2023-12-09T09:47:38.464Z,2.08
2023-12-09T09:50:09.685Z,2.06
2023-12-09T09:52:37.930Z,2.14
2023-12-09T09:55:07.644Z,2.17
2023-12-09T09:57:35.374Z,2.16
2023-12-09T10:00:02.408Z,2.26
2023-12-09T10:02:29.718Z,2.24
2023-12-09T10:04:56.449Z,2.24
2023-12-09T10:07:23.746Z,2.39
2023-12-09T10:09:51.039Z,2.34
2023-12-09T10:12:17.627Z,2.35
2023-12-09T10:14:44.396Z,2.33
2023-12-09T10:17:12.297Z,2.36
2023-12-09T10:19:39.867Z,2.43
2023-12-09T10:22:06.455Z,2.43
2023-12-09T10:24:33.114Z,2.49
2023-12-09T10:27:01.195Z,2.43
2023-12-09T10:29:27.767Z,2.42
2023-12-09T10:31:54.367Z,2.51
2023-12-09T10:34:21.619Z,2.52
2023-12-09T10:36:48.347Z,2.51
2023-12-09T10:39:14.969Z,2.45
2023-12-09T10:41:46.719Z,2.46
2023-12-09T10:44:13.237Z,2.46
2023-12-09T10:46:39.932Z,2.55
2023-12-09T10:49:06.593Z,2.47
2023-12-09T10:51:33.406Z,2.59
2023-12-09T10:54:00.152Z,2.48
2023-12-09T10:56:27.743Z,2.53
2023-12-09T10:58:56.904Z,2.55
2023-12-09T11:01:24.020Z,2.49
2023-12-09T11:03:50.710Z,2.52
2023-12-09T11:06:21.217Z,2.49
2023-12-09T11:08:48.426Z,2.59
2023-12-09T11:11:17.812Z,2.63
2023-12-09T11:13:47.354Z,2.65
2023-12-09T11:16:22.150Z,2.68
2023-12-09T11:18:54.308Z,2.70
2023-12-09T11:21:23.436Z,2.75
2023-12-09T11:23:54.721Z,2.82
2023-12-09T11:26:32.157Z,2.86
2023-12-09T11:29:11.553Z,2.90
2023-12-09T11:31:40.150Z,2.89
2023-12-09T11:34:08.704Z,2.94
2023-12-09T11:36:37.939Z,3.02
2023-12-09T11:39:10.081Z,3.03
2023-12-09T11:41:41.536Z,3.03
2023-12-09T11:44:10.008Z,3.11
2023-12-09T11:46:37.264Z,3.20
2023-12-09T11:49:05.319Z,3.28
2023-12-09T11:51:34.871Z,3.39
2023-12-09T11:54:03.485Z,3.22
2023-12-09T11:56:31.050Z,3.23
2023-12-09T11:58:58.287Z,3.20
2023-12-09T12:01:26.325Z,3.22
2023-12-09T12:03:53.696Z,3.27
2023-12-09T12:06:23.245Z,3.27
2023-12-09T12:08:51.950Z,3.25
2023-12-09T12:11:23.136Z,3.32
2023-12-09T12:13:51.157Z,3.40
2023-12-09T12:16:17.957Z,3.38
2023-12-09T12:18:46.161Z,3.39
2023-12-09T12:21:12.946Z,3.44
2023-12-09T12:23:42.527Z,3.42
2023-12-09T12:26:14.778Z,3.45
2023-12-09T12:28:41.656Z,3.46
2023-12-09T12:31:11.881Z,3.48
2023-12-09T12:33:38.571Z,3.49
2023-12-09T12:36:06.268Z,3.50
2023-12-09T12:38:33.569Z,3.60
2023-12-09T12:41:00.208Z,3.52
2023-12-09T12:43:32.042Z,3.52
2023-12-09T12:46:00.018Z,3.44
2023-12-09T12:48:27.225Z,3.42
2023-12-09T12:50:54.571Z,3.37
2023-12-09T12:53:24.341Z,3.36
2023-12-09T12:55:52.905Z,3.39
2023-12-09T12:58:19.665Z,3.37
2023-12-09T13:00:51.034Z,3.42
2023-12-09T13:03:18.107Z,3.46
2023-12-09T13:05:44.903Z,3.51
2023-12-09T13:08:11.732Z,3.58
2023-12-09T13:10:38.421Z,3.66
2023-12-09T13:13:06.921Z,3.74
2023-12-09T13:15:34.440Z,3.81
2023-12-09T13:18:02.873Z,3.90
2023-12-09T13:20:30.243Z,3.85
2023-12-09T13:22:57.238Z,3.93
2023-12-09T13:25:23.931Z,3.92
2023-12-09T13:27:50.691Z,3.95
2023-12-09T13:30:17.381Z,3.94
2023-12-09T13:32:45.495Z,3.93
2023-12-09T13:35:12.192Z,3.97
2023-12-09T13:37:39.487Z,3.96
2023-12-09T13:40:08.378Z,3.91
2023-12-09T13:42:35.374Z,3.95
2023-12-09T13:45:02.224Z,3.87
2023-12-09T13:47:28.872Z,3.82
2023-12-09T13:49:56.380Z,3.82
2023-12-09T13:52:23.880Z,3.80
2023-12-09T13:54:52.097Z,3.77
2023-12-09T13:57:18.738Z,3.85
2023-12-09T13:59:45.304Z,3.87
2023-12-09T14:02:12.732Z,3.96
2023-12-09T14:04:39.580Z,3.92
2023-12-09T14:07:06.169Z,3.91
2023-12-09T14:09:32.768Z,3.88
2023-12-09T14:12:01.863Z,3.88
2023-12-09T14:14:30.625Z,3.89
2023-12-09T14:16:57.202Z,3.92
2023-12-09T14:19:25.532Z,3.83
2023-12-09T14:21:52.482Z,3.77
2023-12-09T14:24:19.414Z,3.73
2023-12-09T14:26:46.261Z,3.71
2023-12-09T14:29:12.865Z,3.67
2023-12-09T14:31:39.881Z,3.63
2023-12-09T14:34:07.298Z,3.64
2023-12-09T14:36:34.899Z,3.61
2023-12-09T14:39:01.916Z,3.56
2023-12-09T14:41:28.528Z,3.62
2023-12-09T14:43:59.786Z,3.60
2023-12-09T14:46:32.475Z,3.61
2023-12-09T14:48:59.205Z,3.56
2023-12-09T14:53:55.272Z,3.50
2023-12-09T14:56:22.039Z,3.44
2023-12-09T14:58:48.813Z,3.42
2023-12-09T15:01:15.467Z,3.39
2023-12-09T15:03:42.758Z,3.35
2023-12-09T15:06:09.656Z,3.32
2023-12-09T15:08:36.422Z,3.27
2023-12-09T15:11:03.244Z,3.23
2023-12-09T15:13:30.029Z,3.18
2023-12-09T15:15:56.709Z,3.13
2023-12-09T15:18:23.386Z,3.07
2023-12-09T15:20:52.216Z,3.05
2023-12-09T15:23:18.884Z,3.01
2023-12-09T15:25:46.009Z,2.95
2023-12-09T15:28:13.044Z,2.89
2023-12-09T15:30:40.615Z,2.84
2023-12-09T15:33:07.317Z,2.82
2023-12-09T15:35:35.592Z,2.80
2023-12-09T15:38:03.356Z,2.77
2023-12-09T15:40:29.883Z,2.73
2023-12-09T15:42:56.495Z,2.72
2023-12-09T15:45:23.127Z,2.67
2023-12-09T15:47:49.811Z,2.64
2023-12-09T15:50:16.431Z,2.62
2023-12-09T15:52:43.615Z,2.59
2023-12-09T15:55:10.468Z,2.56
2023-12-09T15:57:37.986Z,2.52
2023-12-09T16:00:06.332Z,2.47
2023-12-09T16:02:33.760Z,2.38
2023-12-09T16:05:00.425Z,2.36
2023-12-09T16:07:27.190Z,2.34
2023-12-09T16:09:58.027Z,2.32
2023-12-09T16:12:26.096Z,2.27
2023-12-09T16:14:55.163Z,2.28
2023-12-09T16:17:22.244Z,2.24
2023-12-09T16:19:49.059Z,2.23
2023-12-09T16:22:18.781Z,2.21
2023-12-09T16:24:47.347Z,2.19
2023-12-09T16:27:15.499Z,2.15
2023-12-09T16:29:42.073Z,2.11
2023-12-09T16:32:11.477Z,2.13
2023-12-09T16:34:39.073Z,2.14
2023-12-09T16:37:05.746Z,2.15
2023-12-09T16:39:32.492Z,2.18
2023-12-09T16:41:59.325Z,2.20
2023-12-09T16:44:26.006Z,2.21
2023-12-09T16:46:52.999Z,2.25
2023-12-09T16:49:19.751Z,2.25
2023-12-09T16:51:46.549Z,2.28
2023-12-09T16:54:13.303Z,2.27
2023-12-09T16:56:40.030Z,2.24
2023-12-09T16:59:12.072Z,2.25
2023-12-09T17:01:39.363Z,2.26
2023-12-09T17:04:06.735Z,2.27
2023-12-09T17:06:34.131Z,2.29
2023-12-09T17:09:01.087Z,2.32
2023-12-09T17:11:28.098Z,2.25
2023-12-09T17:13:54.901Z,2.19
2023-12-09T17:16:21.585Z,2.15
2023-12-09T17:18:48.533Z,2.14
2023-12-09T17:21:15.222Z,2.13
2023-12-09T17:23:42.167Z,2.11
2023-12-09T17:26:08.823Z,2.11
2023-12-09T17:28:35.472Z,2.11
2023-12-09T17:31:02.346Z,2.05
2023-12-09T17:33:29.080Z,2.03
2023-12-09T17:35:56.105Z,2.00
2023-12-09T17:38:22.749Z,1.95
2023-12-09T17:40:49.344Z,1.93
2023-12-09T17:43:16.069Z,1.92
2023-12-09T17:45:42.708Z,1.85
2023-12-09T17:48:09.417Z,1.90
2023-12-09T17:50:36.117Z,1.84
2023-12-09T17:53:02.676Z,1.79
2023-12-09T17:55:29.675Z,1.75
2023-12-09T17:57:58.245Z,1.69
2023-12-09T18:00:24.972Z,1.72
2023-12-09T18:02:51.606Z,1.67
2023-12-09T18:05:19.035Z,1.64
2023-12-09T18:07:45.601Z,1.62
2023-12-09T18:10:13.427Z,1.58
2023-12-09T18:12:41.063Z,1.56
2023-12-09T18:15:08.259Z,1.56
2023-12-09T18:17:35.152Z,1.53
2023-12-09T18:20:02.638Z,1.50
2023-12-09T18:22:29.358Z,1.50
2023-12-09T18:24:56.147Z,1.49
2023-12-09T18:27:23.004Z,1.49
2023-12-09T18:29:49.791Z,1.53
2023-12-09T18:32:17.782Z,1.47
2023-12-09T18:34:44.639Z,1.46
2023-12-09T18:37:12.641Z,1.42
2023-12-09T18:39:39.724Z,1.44
2023-12-09T18:42:06.781Z,1.40
2023-12-09T18:44:33.440Z,1.37
2023-12-09T18:47:00.068Z,1.35
2023-12-09T18:49:26.690Z,1.33
2023-12-09T18:51:53.718Z,1.37
2023-12-09T18:54:20.307Z,1.33
2023-12-09T18:56:47.114Z,1.32
2023-12-09T18:59:16.124Z,1.21
2023-12-09T19:01:44.023Z,1.19
2023-12-09T19:04:11.155Z,1.19
2023-12-09T19:06:45.785Z,1.17
2023-12-09T19:09:20.533Z,1.14
2023-12-09T19:11:47.266Z,1.15
2023-12-09T19:14:13.860Z,1.15
2023-12-09T19:16:41.559Z,1.15
2023-12-09T19:19:08.375Z,1.10
2023-12-09T19:21:39.213Z,1.12
2023-12-09T19:24:06.396Z,1.05
2023-12-09T19:26:34.383Z,1.07
2023-12-09T19:29:02.699Z,1.10
2023-12-09T19:31:29.666Z,1.03
2023-12-09T19:33:56.470Z,1.04
2023-12-09T19:36:23.211Z,0.97
2023-12-09T19:38:50.603Z,0.94
2023-12-09T19:41:17.164Z,0.91
2023-12-09T19:43:44.103Z,0.92
2023-12-09T19:46:10.708Z,0.90
2023-12-09T19:48:39.464Z,0.90
2023-12-09T19:51:06.438Z,0.92
2023-12-09T19:53:33.095Z,1.02
2023-12-09T19:55:59.900Z,0.97
2023-12-09T19:58:26.540Z,0.93
2023-12-09T20:00:53.291Z,0.93
2023-12-09T20:03:20.382Z,0.90
2023-12-09T20:05:47.035Z,0.92
2023-12-09T20:08:14.434Z,0.96
2023-12-09T20:10:42.448Z,0.96
2023-12-09T20:13:09.166Z,1.02
2023-12-09T20:15:35.826Z,1.03
2023-12-09T20:18:02.549Z,1.00
2023-12-09T20:20:30.372Z,0.98
2023-12-09T20:22:59.924Z,1.00
2023-12-09T20:25:26.535Z,1.00
2023-12-09T20:27:53.407Z,0.97
2023-12-09T20:30:20.277Z,1.01
2023-12-09T20:32:47.482Z,0.99
2023-12-09T20:35:14.959Z,0.93
2023-12-09T20:37:41.898Z,0.99
2023-12-09T20:40:08.966Z,0.99
2023-12-09T20:42:35.928Z,1.00
2023-12-09T20:45:04.930Z,1.06
2023-12-09T20:47:31.503Z,1.04
2023-12-09T20:49:58.147Z,1.02
2023-12-09T20:52:25.002Z,1.00
2023-12-09T20:54:51.741Z,1.03
2023-12-09T20:57:18.435Z,1.00
2023-12-09T20:59:47.480Z,0.98
2023-12-09T21:02:14.058Z,0.97
2023-12-09T21:04:45.226Z,0.96
2023-12-09T21:07:12.089Z,0.98
2023-12-09T21:09:41.361Z,0.97
2023-12-09T21:12:09.167Z,1.03
2023-12-09T21:14:35.827Z,1.04
2023-12-09T21:17:02.581Z,1.04
2023-12-09T21:19:32.208Z,1.05
2023-12-09T21:21:58.912Z,1.21
2023-12-09T21:24:25.506Z,1.29
2023-12-09T21:26:53.264Z,1.26
2023-12-09T21:29:20.885Z,1.33
2023-12-09T21:31:47.514Z,1.22
2023-12-09T21:34:14.674Z,1.33
2023-12-09T21:36:41.774Z,1.17
2023-12-09T21:39:09.983Z,1.24
2023-12-09T21:41:36.728Z,1.34
2023-12-09T21:44:03.474Z,1.22
2023-12-09T21:46:30.708Z,1.30
2023-12-09T21:48:57.949Z,1.37
2023-12-09T21:51:24.884Z,1.32
2023-12-09T21:53:51.670Z,1.29
2023-12-09T21:56:22.804Z,1.42
2023-12-09T21:58:50.343Z,1.34
2023-12-09T22:01:20.469Z,1.42
2023-12-09T22:03:47.916Z,1.33
2023-12-09T22:06:14.904Z,1.47
2023-12-09T22:08:42.678Z,1.49
2023-12-09T22:11:10.319Z,1.58
2023-12-09T22:13:36.979Z,1.69
2023-12-09T22:16:04.876Z,1.68
2023-12-09T22:18:31.719Z,1.72
2023-12-09T22:21:01.715Z,1.62
2023-12-09T22:23:28.559Z,1.60
2023-12-09T22:25:55.472Z,1.64
2023-12-09T22:28:22.590Z,1.62
2023-12-09T22:30:49.285Z,1.50
2023-12-09T22:33:16.006Z,1.57
2023-12-09T22:35:43.435Z,1.54
2023-12-09T22:38:10.018Z,1.54
2023-12-09T22:40:37.481Z,1.52
2023-12-09T22:43:04.290Z,1.61
2023-12-09T22:45:30.850Z,1.69
2023-12-09T22:47:57.662Z,1.64
2023-12-09T22:50:24.457Z,1.58
2023-12-09T22:52:51.084Z,1.59
2023-12-09T22:55:17.711Z,1.68
2023-12-09T22:57:45.628Z,1.58
2023-12-09T23:00:18.969Z,1.58
2023-12-09T23:02:45.511Z,1.71
2023-12-09T23:05:12.135Z,1.66
2023-12-09T23:07:38.661Z,1.56
2023-12-09T23:10:05.901Z,1.58
2023-12-09T23:12:32.809Z,1.72
2023-12-09T23:14:59.400Z,1.67
2023-12-09T23:17:26.001Z,1.69
2023-12-09T23:19:52.668Z,1.61
2023-12-09T23:22:19.219Z,1.71
2023-12-09T23:24:45.821Z,1.75
2023-12-09T23:27:12.409Z,1.54
2023-12-09T23:29:39.023Z,1.53
2023-12-09T23:32:06.668Z,1.58
2023-12-09T23:34:33.298Z,1.60
2023-12-09T23:36:59.899Z,1.46
2023-12-09T23:39:26.545Z,1.47
2023-12-09T23:41:53.780Z,1.45
2023-12-09T23:44:22.430Z,1.42
2023-12-09T23:46:49.008Z,1.43
2023-12-09T23:49:15.528Z,1.43
2023-12-09T23:51:42.121Z,1.42
2023-12-09T23:54:08.677Z,1.48
2023-12-09T23:56:35.247Z,1.43
2023-12-09T23:59:01.778Z,1.55
